Time;durP1;ratioP1;P1;durP2;ratioP2;P2;SDS_P1;SDS_P2;PMS_P1;PMS_P2;Temp;Humidity;BMP_temperature;BMP_pressure;BME280_temperature;BME280_humidity;BME280_pressure;Samples;Min_cycle;Max_cycle;Signal;HPM_P1;HPM_P2
2023/03/16 00:04:30;;;;;;;0.35;0.35;;;;;;;-2.37;88.21;101812.25;10112571;29;20124;-81
2023/03/16 00:09:32;;;;;;;0.10;0.10;;;;;;;-2.35;88.06;101813.28;10138502;29;20053;-81
2023/03/16 00:14:34;;;;;;;1.02;1.00;;;;;;;-2.35;88.51;101820.09;10139841;29;20052;-81
2023/03/16 00:19:36;;;;;;;0.38;0.38;;;;;;;-2.40;87.77;101816.22;10125190;29;20057;-81
2023/03/16 00:24:37;;;;;;;0.50;0.50;;;;;;;-2.40;87.90;101806.88;10149737;29;20124;-81
2023/03/16 00:29:54;;;;;;;1.85;1.27;;;;;;;-2.45;87.99;101817.50;10135054;29;20139;-81
2023/03/16 00:34:56;;;;;;;0.30;0.30;;;;;;;-2.49;87.83;101806.97;10144057;29;20057;-82
2023/03/16 00:39:58;;;;;;;0.50;0.50;;;;;;;-2.46;87.39;101811.47;10133480;29;20117;-82
2023/03/16 00:45:00;;;;;;;0.20;0.20;;;;;;;-2.51;87.14;101805.03;10121845;29;20908;-82
2023/03/16 00:50:02;;;;;;;0.93;0.90;;;;;;;-2.50;87.21;101794.03;10123515;29;20053;-82
2023/03/16 00:55:04;;;;;;;0.47;0.47;;;;;;;-2.49;87.10;101795.84;10134169;29;20069;-82
2023/03/16 01:00:11;;;;;;;0.40;0.40;;;;;;;-2.42;87.08;101793.00;10125579;29;20056;-82
2023/03/16 01:05:14;;;;;;;1.50;0.93;;;;;;;-2.42;86.74;101797.25;10116486;29;20052;-82
2023/03/16 01:10:16;;;;;;;0.30;0.30;;;;;;;-2.34;86.46;101792.00;10118107;29;20065;-82
2023/03/16 01:15:17;;;;;;;0.20;0.20;;;;;;;-2.30;86.60;101782.88;10134234;29;20071;-82
2023/03/16 01:20:19;;;;;;;0.52;0.52;;;;;;;-2.14;86.09;101790.22;10116977;29;20063;-82
2023/03/16 01:25:21;;;;;;;0.60;0.43;;;;;;;-1.98;85.76;101772.78;10128715;29;20059;-82
2023/03/16 01:30:23;;;;;;;0.32;0.25;;;;;;;-1.79;85.30;101769.16;10139397;29;20057;-82
2023/03/16 01:35:24;;;;;;;0.82;0.77;;;;;;;-1.66;84.79;101766.81;10129386;29;20053;-82
2023/03/16 01:40:26;;;;;;;0.63;0.63;;;;;;;-1.52;84.42;101759.34;10131678;29;20063;-82
2023/03/16 01:45:56;;;;;;;0.68;0.57;;;;;;;-1.47;83.95;101752.91;10131052;29;20049;-82
2023/03/16 01:50:59;;;;;;;2.17;0.40;;;;;;;-1.47;83.45;101743.53;10111096;29;20053;-82
2023/03/16 01:56:04;;;;;;;2.33;1.02;;;;;;;-1.51;83.39;101741.50;10137851;29;20064;-82
2023/03/16 02:01:07;;;;;;;0.30;0.30;;;;;;;-1.48;83.12;101730.56;10115314;29;20109;-82
2023/03/16 02:06:17;;;;;;;0.35;0.35;;;;;;;-1.33;83.04;101711.25;10141699;29;20079;-82
2023/03/16 02:11:25;;;;;;;0.32;0.32;;;;;;;-1.37;82.60;101711.75;10118163;29;20648;-82
2023/03/16 02:16:34;;;;;;;0.45;0.45;;;;;;;-1.38;82.41;101697.13;10129244;29;20063;-82
2023/03/16 02:22:05;;;;;;;0.60;0.60;;;;;;;-1.40;81.90;101702.91;10122688;29;20201;-82
2023/03/16 02:27:11;;;;;;;0.65;0.55;;;;;;;-1.45;81.83;101700.88;10143259;29;20044;-81
2023/03/16 02:32:14;;;;;;;0.40;0.40;;;;;;;-1.50;81.78;101697.06;10123866;29;20045;-82
2023/03/16 02:37:15;;;;;;;0.73;0.70;;;;;;;-1.52;81.70;101692.56;10128685;29;20060;-82
2023/03/16 02:42:21;;;;;;;1.00;0.80;;;;;;;-1.54;81.83;101689.88;10129180;29;20108;-82
2023/03/16 02:47:43;;;;;;;0.43;0.40;;;;;;;-1.43;81.96;101691.63;10142466;29;20212;-83
2023/03/16 02:52:47;;;;;;;0.60;0.60;;;;;;;-1.35;81.70;101688.75;10147614;29;20061;-82
2023/03/16 02:57:51;;;;;;;1.05;0.65;;;;;;;-1.28;81.25;101709.03;10116419;29;20221;-83
2023/03/16 03:02:53;;;;;;;0.20;0.20;;;;;;;-1.29;81.02;101696.94;10139597;29;20052;-81
2023/03/16 03:07:54;;;;;;;1.65;1.00;;;;;;;-1.29;81.37;101696.94;10122593;29;20057;-82
2023/03/16 03:12:57;;;;;;;0.65;0.40;;;;;;;-1.25;81.37;101689.63;10143902;29;20056;-81
2023/03/16 03:17:59;;;;;;;1.75;0.32;;;;;;;-1.23;81.01;101686.25;10113547;29;20057;-82
2023/03/16 03:23:04;;;;;;;0.15;0.15;;;;;;;-1.23;81.07;101691.41;10146262;29;20051;-82
2023/03/16 03:28:05;;;;;;;0.43;0.43;;;;;;;-1.19;80.76;101686.63;10136383;29;20057;-82
2023/03/16 03:33:07;;;;;;;0.73;0.73;;;;;;;-1.21;81.19;101680.47;10136398;29;20053;-82
2023/03/16 03:38:10;;;;;;;0.63;0.60;;;;;;;-1.24;81.10;101693.09;10150497;29;20056;-82
2023/03/16 03:43:12;;;;;;;0.20;0.20;;;;;;;-1.12;80.85;101688.03;10132123;29;20220;-82
2023/03/16 03:48:16;;;;;;;1.05;1.05;;;;;;;-1.05;80.74;101694.53;10124670;29;20036;-81
2023/03/16 03:53:19;;;;;;;5.82;0.35;;;;;;;-1.08;80.93;101690.94;10132151;29;20049;-82
2023/03/16 03:58:49;;;;;;;1.80;0.30;;;;;;;-1.07;80.67;101691.84;10126513;29;20117;-82
2023/03/16 04:03:59;;;;;;;0.70;0.63;;;;;;;-0.98;80.80;101694.22;10127309;29;20049;-82
2023/03/16 04:09:01;;;;;;;1.45;0.68;;;;;;;-0.85;80.35;101683.25;10112018;29;20063;-82
2023/03/16 04:14:04;;;;;;;0.30;0.30;;;;;;;-0.79;80.35;101676.00;10150430;29;20049;-82
2023/03/16 04:19:06;;;;;;;0.25;0.25;;;;;;;-0.73;80.38;101679.03;10140473;29;20060;-82
2023/03/16 04:24:08;;;;;;;0.38;0.35;;;;;;;-0.65;80.35;101667.66;10106468;29;20091;-82
2023/03/16 04:29:13;;;;;;;1.17;1.05;;;;;;;-0.59;79.94;101670.69;10112348;29;20387;-81
2023/03/16 04:34:14;;;;;;;0.50;0.50;;;;;;;-0.50;80.02;101674.75;10117353;29;20040;-82
2023/03/16 04:39:17;;;;;;;0.20;0.20;;;;;;;-0.43;79.79;101653.84;10145569;29;20049;-81
2023/03/16 04:44:19;;;;;;;0.40;0.30;;;;;;;-0.36;79.38;101644.13;10121992;29;20057;-82
2023/03/16 04:49:23;;;;;;;0.30;0.30;;;;;;;-0.28;79.20;101646.38;10128314;29;20056;-82
2023/03/16 04:54:25;;;;;;;0.57;0.47;;;;;;;-0.21;79.20;101635.75;10134424;29;20053;-81
2023/03/16 04:59:26;;;;;;;0.32;0.32;;;;;;;-0.19;79.16;101622.22;10124925;29;20068;-82
2023/03/16 05:04:36;;;;;;;0.60;0.47;;;;;;;-0.12;78.93;101622.66;10131772;29;20118;-82
2023/03/16 05:09:39;;;;;;;2.13;0.50;;;;;;;-0.07;78.66;101616.19;10141339;29;20084;-82
2023/03/16 05:14:40;;;;;;;0.45;0.45;;;;;;;-0.01;78.68;101619.19;10141224;29;20053;-82
2023/03/16 05:19:57;;;;;;;0.35;0.32;;;;;;;-0.03;77.91;101623.31;10120709;29;20064;-82
2023/03/16 05:25:02;;;;;;;0.32;0.32;;;;;;;-0.02;77.88;101610.56;10130096;29;20044;-82
2023/03/16 05:30:04;;;;;;;0.38;0.38;;;;;;;0.04;77.82;101615.28;10154615;29;20064;-82
2023/03/16 05:35:12;;;;;;;1.00;0.43;;;;;;;0.14;77.69;101610.00;10128264;29;20559;-81
2023/03/16 05:40:17;;;;;;;0.68;0.38;;;;;;;0.18;77.32;101605.97;10134652;29;20572;-82
2023/03/16 05:45:27;;;;;;;0.10;0.10;;;;;;;0.22;77.15;101604.53;10131527;29;20549;-82
2023/03/16 05:50:51;;;;;;;0.40;0.40;;;;;;;0.26;77.42;101611.69;10116379;29;20120;-82
2023/03/16 05:56:00;;;;;;;0.45;0.43;;;;;;;0.32;77.29;101604.41;10141260;29;20308;-82
2023/03/16 06:01:03;;;;;;;0.50;0.50;;;;;;;0.36;76.99;101598.66;10125294;29;20071;-82
2023/03/16 06:06:07;;;;;;;13.90;1.33;;;;;;;0.46;77.09;101590.78;10133459;29;20059;-83
2023/03/16 06:11:20;;;;;;;0.40;0.40;;;;;;;0.60;76.77;101602.09;10131076;29;20081;-82
2023/03/16 06:16:23;;;;;;;2.17;0.77;;;;;;;0.72;76.33;101607.19;10121380;29;20077;-83
2023/03/16 06:21:24;;;;;;;0.65;0.40;;;;;;;0.78;75.72;101602.50;10098237;29;20072;-83
2023/03/16 06:26:28;;;;;;;0.95;0.52;;;;;;;0.91;75.85;101605.91;10103406;29;20083;-83
2023/03/16 06:31:32;;;;;;;0.52;0.50;;;;;;;1.02;75.51;101604.94;10135438;29;20072;-83
2023/03/16 06:36:38;;;;;;;0.45;0.45;;;;;;;1.05;75.09;101606.06;10103510;29;20072;-80
2023/03/16 06:41:44;;;;;;;2.15;1.38;;;;;;;1.16;74.93;101614.53;10116361;29;20060;-82
2023/03/16 06:46:48;;;;;;;0.40;0.40;;;;;;;1.23;74.79;101616.75;10112549;29;20087;-83
2023/03/16 06:51:50;;;;;;;0.88;0.57;;;;;;;1.34;74.21;101619.19;10118489;29;20049;-83
2023/03/16 06:56:52;;;;;;;1.17;0.60;;;;;;;1.43;74.28;101619.78;10131835;29;20109;-83
2023/03/16 07:01:55;;;;;;;0.43;0.43;;;;;;;1.54;73.93;101617.94;10100551;29;20053;-83
2023/03/16 07:06:57;;;;;;;0.82;0.65;;;;;;;1.65;73.59;101627.28;10135608;29;20131;-83
2023/03/16 07:11:58;;;;;;;1.05;0.82;;;;;;;1.79;73.37;101619.53;10114595;29;20332;-82
2023/03/16 07:17:00;;;;;;;1.10;0.57;;;;;;;1.91;73.09;101622.94;10136770;29;20056;-83
2023/03/16 07:22:03;;;;;;;0.35;0.30;;;;;;;2.01;72.44;101621.84;10129995;29;20718;-83
2023/03/16 07:27:08;;;;;;;1.27;0.47;;;;;;;2.13;72.28;101620.03;10112779;29;20076;-83
2023/03/16 07:32:13;;;;;;;0.50;0.45;;;;;;;2.28;71.47;101612.38;10119171;29;20052;-83
2023/03/16 07:37:15;;;;;;;0.20;0.20;;;;;;;2.38;71.65;101616.47;10102949;29;20056;-83
2023/03/16 07:42:22;;;;;;;1.38;1.10;;;;;;;2.51;70.96;101606.09;10118872;29;20072;-83
2023/03/16 07:47:37;;;;;;;0.47;0.40;;;;;;;2.60;70.73;101619.59;10104164;29;20053;-83
2023/03/16 07:52:56;;;;;;;0.65;0.43;;;;;;;2.67;70.16;101617.41;10126661;29;20049;-83
2023/03/16 07:57:58;;;;;;;0.10;0.10;;;;;;;2.74;70.13;101622.16;10108982;29;20143;-83
2023/03/16 08:03:05;;;;;;;0.32;0.32;;;;;;;2.83;69.91;101633.06;10113776;29;20569;-81
2023/03/16 08:08:08;;;;;;;0.38;0.35;;;;;;;2.90;69.37;101632.66;10122519;29;20053;-82
2023/03/16 08:13:11;;;;;;;0.68;0.40;;;;;;;3.00;69.29;101634.09;10102245;29;20049;-82
2023/03/16 08:18:15;;;;;;;2.20;1.00;;;;;;;3.14;69.15;101634.97;10128254;29;20112;-82
2023/03/16 08:23:18;;;;;;;0.35;0.25;;;;;;;3.23;68.75;101629.44;10110936;29;20051;-82
2023/03/16 08:28:24;;;;;;;2.22;1.27;;;;;;;3.33;68.53;101632.69;10135741;29;20088;-82
2023/03/16 08:33:28;;;;;;;0.32;0.22;;;;;;;3.41;67.88;101627.06;10126945;29;20155;-82
2023/03/16 08:38:29;;;;;;;0.80;0.52;;;;;;;3.50;68.00;101618.16;10128752;29;20560;-81
2023/03/16 08:43:36;;;;;;;0.40;0.40;;;;;;;3.52;67.71;101621.72;10122751;29;20071;-83
2023/03/16 08:48:45;;;;;;;0.38;0.38;;;;;;;3.61;67.57;101626.53;10097887;29;20065;-84
2023/03/16 08:53:48;;;;;;;;;;;;;;;3.61;67.57;101626.53;10077791;29;20051;-85
2023/03/16 08:58:51;;;;;;;1.58;0.57;;;;;;;3.94;67.44;101610.28;10096524;29;20443;-85
2023/03/16 09:03:53;;;;;;;0.30;0.30;;;;;;;4.12;67.10;101615.63;10087559;29;20045;-85
2023/03/16 09:08:56;;;;;;;1.73;1.17;;;;;;;4.24;66.77;101614.59;10085016;29;20061;-84
2023/03/16 09:13:59;;;;;;;1.60;1.02;;;;;;;4.34;66.38;101613.44;10078197;29;20051;-84
2023/03/16 09:19:04;;;;;;;0.60;0.55;;;;;;;4.50;66.08;101614.25;10085207;29;20044;-84
2023/03/16 09:24:07;;;;;;;0.98;0.68;;;;;;;4.69;65.85;101603.19;10103296;29;20068;-84
2023/03/16 09:29:09;;;;;;;0.93;0.57;;;;;;;4.80;65.57;101609.84;10095309;29;20876;-84
2023/03/16 09:34:11;;;;;;;1.70;0.77;;;;;;;4.88;65.21;101607.66;10093552;29;20272;-85
2023/03/16 09:39:14;;;;;;;1.88;0.90;;;;;;;5.03;64.94;101599.78;10087172;29;20080;-85
2023/03/16 09:44:32;;;;;;;1.23;0.75;;;;;;;5.20;64.65;101598.97;10115449;29;20136;-84
2023/03/16 09:49:39;;;;;;;0.77;0.43;;;;;;;5.37;64.42;101593.75;10103912;29;20056;-85
2023/03/16 09:54:49;;;;;;;1.58;0.70;;;;;;;5.61;63.97;101591.50;10102173;29;20413;-86
2023/03/16 09:59:52;;;;;;;;;;;;;;;5.79;63.50;101600.22;10116069;29;20055;-85
2023/03/16 10:05:14;;;;;;;1.10;0.88;;;;;;;6.03;63.58;101599.66;10106787;29;19954;-86
2023/03/16 10:10:48;;;;;;;1.65;0.65;;;;;;;6.31;62.94;101596.69;10096908;29;20068;-86
2023/03/16 10:15:52;;;;;;;1.90;0.93;;;;;;;6.80;62.61;101586.75;10090857;29;20061;-87
2023/03/16 10:20:57;;;;;;;1.30;0.77;;;;;;;6.69;62.12;101583.66;10099938;29;20059;-86
2023/03/16 10:26:04;;;;;;;1.77;0.75;;;;;;;6.76;61.67;101582.25;10087064;29;20059;-84
2023/03/16 10:31:05;;;;;;;1.17;0.80;;;;;;;6.72;61.87;101589.03;10109483;29;20060;-85
2023/03/16 10:36:14;;;;;;;0.77;0.60;;;;;;;6.74;61.27;101582.19;10098961;29;20053;-84
2023/03/16 10:41:20;;;;;;;2.85;1.25;;;;;;;7.15;61.36;101582.25;10100310;29;20056;-85
2023/03/16 10:46:26;;;;;;;2.10;1.08;;;;;;;7.24;60.68;101572.22;10108842;29;20057;-84
2023/03/16 10:51:31;;;;;;;1.38;0.45;;;;;;;7.27;60.33;101569.75;10107560;29;20052;-85
2023/03/16 10:56:34;;;;;;;2.05;1.13;;;;;;;7.20;59.83;101558.16;10103957;29;20136;-85
2023/03/16 11:01:36;;;;;;;3.22;1.58;;;;;;;7.59;60.22;101554.59;10108639;29;20151;-84
2023/03/16 11:06:56;;;;;;;2.05;0.63;;;;;;;7.79;59.37;101571.03;10111270;29;20494;-85
2023/03/16 11:11:59;;;;;;;1.37;0.93;;;;;;;8.13;58.97;101567.19;10116628;29;20056;-85
2023/03/16 11:17:11;;;;;;;2.28;1.42;;;;;;;8.21;58.80;101562.25;10118509;29;20057;-82
2023/03/16 11:22:16;;;;;;;2.58;0.95;;;;;;;8.44;58.66;101542.31;10131165;29;20053;-84
2023/03/16 11:27:36;;;;;;;2.88;1.05;;;;;;;8.31;57.93;101535.69;10089362;29;20053;-85
2023/03/16 11:32:41;;;;;;;2.90;1.10;;;;;;;8.34;58.16;101522.78;10093836;29;20052;-85
2023/03/16 11:38:08;;;;;;;1.08;0.75;;;;;;;8.23;58.32;101519.75;10109481;29;20053;-85
2023/03/16 11:43:31;;;;;;;2.58;1.10;;;;;;;8.19;58.16;101515.25;10104044;29;20414;-85
2023/03/16 11:48:41;;;;;;;2.45;1.30;;;;;;;8.17;58.32;101496.03;10096248;29;20049;-85
2023/03/16 11:53:46;;;;;;;4.65;1.40;;;;;;;8.20;58.44;101508.31;10081017;29;20044;-84
2023/03/16 11:58:55;;;;;;;4.57;1.73;;;;;;;8.08;58.43;101508.75;10104308;29;20049;-85
2023/03/16 12:04:11;;;;;;;1.58;0.95;;;;;;;8.08;58.48;101503.53;10102424;29;20053;-85
2023/03/16 12:09:46;;;;;;;1.77;0.85;;;;;;;8.21;58.99;101497.03;10119598;29;20055;-86
2023/03/16 12:15:17;;;;;;;1.80;0.70;;;;;;;8.18;58.40;101500.44;10106766;29;20048;-85
2023/03/16 12:20:28;;;;;;;2.55;1.35;;;;;;;8.18;58.28;101484.78;10081222;29;20120;-86
2023/03/16 12:25:35;;;;;;;2.92;0.60;;;;;;;7.99;57.80;101484.88;10091879;29;20059;-83
2023/03/16 12:30:52;;;;;;;2.03;1.00;;;;;;;7.99;57.84;101488.41;10077395;29;21029;-86
2023/03/16 12:36:18;;;;;;;2.10;1.05;;;;;;;7.81;58.02;101474.63;10098417;29;20418;-86
2023/03/16 12:41:43;;;;;;;2.97;1.15;;;;;;;7.72;58.38;101456.94;10097298;29;20540;-86
2023/03/16 12:47:02;;;;;;;2.50;1.05;;;;;;;7.85;58.60;101456.56;10101612;29;20494;-86
2023/03/16 12:52:13;;;;;;;1.98;1.10;;;;;;;7.92;59.35;101455.09;10096015;29;20121;-86
2023/03/16 12:57:16;;;;;;;1.77;0.90;;;;;;;7.89;59.06;101447.16;10111896;29;20079;-86
2023/03/16 13:02:23;;;;;;;2.58;1.27;;;;;;;7.83;59.23;101455.63;10089044;29;20589;-86
2023/03/16 13:07:29;;;;;;;1.65;1.00;;;;;;;7.70;59.13;101442.91;10102177;29;20059;-86
2023/03/16 13:12:35;;;;;;;2.03;0.95;;;;;;;7.61;59.40;101449.56;10084457;29;20139;-87
2023/03/16 13:17:37;;;;;;;2.40;1.00;;;;;;;7.63;60.01;101453.94;10115436;29;20053;-88
2023/03/16 13:22:48;;;;;;;1.98;1.40;;;;;;;7.26;61.06;101449.00;10086780;29;20051;-86
2023/03/16 13:27:56;;;;;;;2.83;1.33;;;;;;;7.05;62.28;101451.59;10103079;29;20071;-86
2023/03/16 13:33:05;;;;;;;1.80;0.93;;;;;;;6.89;63.63;101430.94;10100973;29;20120;-85
2023/03/16 13:38:15;;;;;;;0.68;0.40;;;;;;;6.62;64.76;101425.47;10080759;29;20053;-87
2023/03/16 13:43:28;;;;;;;2.47;0.85;;;;;;;6.61;65.86;101402.88;10081370;29;20148;-87
2023/03/16 13:48:36;;;;;;;3.53;1.35;;;;;;;6.74;66.22;101373.97;10104906;29;20053;-87
2023/03/16 13:53:43;;;;;;;11.60;1.52;;;;;;;6.87;66.45;101360.59;10127126;29;20081;-87
2023/03/16 13:59:13;;;;;;;6.95;1.60;;;;;;;7.02;66.22;101343.84;10135930;29;20092;-88
2023/03/16 14:04:45;;;;;;;5.75;1.05;;;;;;;7.22;65.74;101332.50;10094350;29;20430;-87
2023/03/16 14:10:17;;;;;;;6.78;2.13;;;;;;;7.37;64.91;101327.03;10091249;29;20045;-86
2023/03/16 14:15:33;;;;;;;1.92;1.17;;;;;;;7.54;64.09;101330.25;10083092;29;20079;-86
2023/03/16 14:21:09;;;;;;;2.25;1.15;;;;;;;7.87;64.17;101311.50;10105866;29;20101;-87
2023/03/16 14:32:29;;;;;;;1.42;1.00;;;;;;;8.13;62.43;101296.75;10097854;29;20063;-90
2023/03/16 14:38:36;;;;;;;2.13;1.08;;;;;;;8.21;61.70;101270.06;10083606;29;20052;-89
2023/03/16 14:44:10;;;;;;;1.55;0.85;;;;;;;8.34;61.64;101263.56;10095608;29;20044;-92
2023/03/16 14:49:37;;;;;;;2.10;1.50;;;;;;;8.28;61.51;101251.19;10073683;29;20127;-89
2023/03/16 14:55:31;;;;;;;;;;;;;;;;;;;;;
2023/03/16 15:01:36;;;;;;;1.55;0.93;;;;;;;8.17;60.66;101232.56;10097539;29;20056;-87
2023/03/16 15:19:26;;;;;;;1.48;0.88;;;;;;;8.08;59.21;101206.19;9944201;29;20207;-91
2023/03/16 15:25:03;;;;;;;4.40;0.85;;;;;;;8.06;59.15;101207.81;9911527;29;20092;-89
2023/03/16 15:30:42;;;;;;;1.63;0.98;;;;;;;8.05;59.25;101198.25;9934998;29;20115;-91
2023/03/16 15:42:49;;;;;;;3.45;0.95;;;;;;;7.88;58.80;101215.91;9994429;29;20057;-88
2023/03/16 15:48:10;;;;;;;1.00;0.73;;;;;;;7.73;58.45;101204.13;10111445;23;20503;-87
2023/03/16 15:59:59;;;;;;;2.92;1.13;;;;;;;7.67;58.51;101189.97;10145537;29;20071;-88
2023/03/16 16:05:24;;;;;;;0.60;0.60;;;;;;;7.61;57.96;101181.09;10116149;29;20052;-90
2023/03/16 16:11:17;;;;;;;1.10;0.65;;;;;;;7.59;57.76;101180.16;10111940;29;20083;-87
2023/03/16 16:16:32;;;;;;;3.50;1.73;;;;;;;7.56;57.53;101172.22;10120452;29;20052;-88
2023/03/16 16:21:51;;;;;;;1.80;1.05;;;;;;;7.49;57.08;101158.94;10133743;29;20052;-86
2023/03/16 16:26:56;;;;;;;1.70;0.90;;;;;;;7.39;57.83;101162.94;10132418;29;20056;-84
2023/03/16 16:32:08;;;;;;;1.13;0.75;;;;;;;7.33;58.16;101163.59;10146557;29;20067;-84
2023/03/16 16:37:10;;;;;;;1.70;0.85;;;;;;;7.29;58.48;101155.63;10133451;29;20048;-85
2023/03/16 16:42:16;;;;;;;4.03;1.63;;;;;;;7.22;58.75;101152.78;10142485;29;20056;-84
2023/03/16 16:47:22;;;;;;;2.45;1.08;;;;;;;7.16;59.10;101147.34;10119159;29;20091;-85
2023/03/16 16:52:27;;;;;;;1.70;0.88;;;;;;;7.12;59.24;101142.84;10144838;29;20054;-86
2023/03/16 16:57:30;;;;;;;1.23;0.70;;;;;;;7.11;59.25;101148.88;10111778;29;20056;-85
2023/03/16 17:02:43;;;;;;;1.15;0.73;;;;;;;7.08;59.36;101151.38;10124904;29;20050;-86
2023/03/16 17:07:45;;;;;;;2.13;1.05;;;;;;;7.04;59.47;101145.19;10133034;29;20111;-84
2023/03/16 17:12:49;;;;;;;3.55;1.25;;;;;;;6.97;59.62;101152.72;10129433;29;20048;-84
2023/03/16 17:18:12;;;;;;;2.20;0.98;;;;;;;6.89;59.88;101136.78;10115165;29;20061;-85
2023/03/16 17:23:33;;;;;;;0.65;0.60;;;;;;;6.82;59.73;101134.81;10132933;29;20048;-84
2023/03/16 17:28:38;;;;;;;1.63;0.90;;;;;;;6.71;60.07;101118.75;10146276;29;20588;-84
2023/03/16 17:33:40;;;;;;;2.75;1.10;;;;;;;6.58;60.23;101121.75;10139666;29;20525;-85
2023/03/16 17:38:42;;;;;;;0.40;0.40;;;;;;;6.49;60.21;101128.34;10126806;29;20144;-84
2023/03/16 17:43:46;;;;;;;1.65;0.77;;;;;;;6.49;60.02;101125.75;10149305;29;20495;-85
2023/03/16 17:48:51;;;;;;;0.35;0.35;;;;;;;6.42;59.85;101120.25;10130624;29;21214;-84
2023/03/16 17:53:54;;;;;;;1.85;0.73;;;;;;;6.35;59.50;101121.69;10163433;29;20079;-84
2023/03/16 17:58:56;;;;;;;1.58;0.82;;;;;;;6.26;59.44;101126.53;10127054;29;20052;-85
2023/03/16 18:03:59;;;;;;;2.72;0.70;;;;;;;6.22;59.15;101122.94;10141646;29;20551;-84
2023/03/16 18:09:01;;;;;;;1.00;0.40;;;;;;;6.07;59.10;101118.00;10146840;29;20536;-84
2023/03/16 18:14:07;;;;;;;2.15;0.88;;;;;;;6.03;58.99;101120.41;10163228;29;20530;-84
2023/03/16 18:19:23;;;;;;;0.40;0.40;;;;;;;6.00;58.73;101116.88;10124483;29;20056;-84
2023/03/16 18:24:27;;;;;;;1.33;0.77;;;;;;;5.96;58.66;101129.63;10152527;29;20040;-84
2023/03/16 18:29:29;;;;;;;0.35;0.30;;;;;;;5.95;58.23;101126.16;10144232;29;20060;-85
2023/03/16 18:34:39;;;;;;;0.77;0.30;;;;;;;5.84;58.22;101128.31;10147725;29;20052;-84
2023/03/16 18:39:41;;;;;;;0.63;0.55;;;;;;;5.76;58.15;101131.41;10118587;29;20052;-85
2023/03/16 18:44:43;;;;;;;3.10;1.25;;;;;;;5.75;58.08;101129.63;10148118;29;20047;-84
2023/03/16 18:49:48;;;;;;;1.13;0.60;;;;;;;5.73;57.85;101131.28;10157662;29;20424;-84
2023/03/16 18:54:50;;;;;;;0.60;0.45;;;;;;;5.73;57.95;101123.47;10151276;29;20060;-84
2023/03/16 18:59:53;;;;;;;1.52;0.82;;;;;;;5.69;57.93;101112.09;10151469;29;20059;-84
2023/03/16 19:04:57;;;;;;;1.05;0.57;;;;;;;5.66;58.05;101104.16;10158128;29;20051;-84
2023/03/16 19:10:17;;;;;;;0.32;0.25;;;;;;;5.67;58.08;101100.72;10133347;29;20145;-84
2023/03/16 19:15:27;;;;;;;0.37;0.37;;;;;;;5.68;58.36;101092.13;10138345;29;20402;-84
2023/03/16 19:20:31;;;;;;;0.77;0.63;;;;;;;5.68;58.51;101091.25;10118191;29;20056;-84
2023/03/16 19:25:37;;;;;;;;;;;;;;;5.72;58.58;101077.53;10133047;29;20052;-84
2023/03/16 19:30:39;;;;;;;0.80;0.40;;;;;;;5.78;58.65;101081.28;10126480;29;19931;-84
2023/03/16 19:35:41;;;;;;;0.90;0.47;;;;;;;5.74;58.82;101056.00;10119644;29;20048;-84
2023/03/16 19:40:58;;;;;;;1.63;0.52;;;;;;;5.80;58.74;101065.75;10116729;29;20103;-84
2023/03/16 19:46:00;;;;;;;0.40;0.28;;;;;;;5.85;58.90;101053.81;10141495;29;20044;-84
2023/03/16 19:51:03;;;;;;;1.40;0.60;;;;;;;5.83;59.10;101047.69;10146983;29;20070;-84
2023/03/16 19:56:09;;;;;;;0.65;0.57;;;;;;;5.84;59.10;101041.66;10146150;29;20124;-84
2023/03/16 20:01:17;;;;;;;0.35;0.35;;;;;;;5.86;59.50;101033.94;10121820;29;20057;-84
2023/03/16 20:06:23;;;;;;;0.28;0.28;;;;;;;5.87;59.68;101021.00;10139345;29;20410;-84
2023/03/16 20:11:30;;;;;;;0.28;0.28;;;;;;;5.87;59.94;101009.69;10118481;29;20056;-84
2023/03/16 20:16:34;;;;;;;0.32;0.32;;;;;;;5.88;60.25;101017.56;10121859;29;20056;-84
2023/03/16 20:21:36;;;;;;;1.88;0.77;;;;;;;5.90;60.25;101008.13;10128305;29;20083;-84
2023/03/16 20:26:38;;;;;;;1.65;0.50;;;;;;;5.95;60.34;101013.50;10150645;29;20125;-84
2023/03/16 20:31:40;;;;;;;0.85;0.50;;;;;;;5.92;60.61;101003.00;10131509;29;20059;-84
2023/03/16 20:36:42;;;;;;;1.13;0.95;;;;;;;5.91;60.81;101003.81;10121865;29;20082;-84
2023/03/16 20:41:44;;;;;;;1.15;0.60;;;;;;;5.92;61.05;101000.38;10118111;29;20067;-84
2023/03/16 20:46:46;;;;;;;1.85;0.90;;;;;;;5.97;61.05;100981.56;10140055;29;20426;-84
2023/03/16 20:51:50;;;;;;;0.45;0.45;;;;;;;5.98;61.36;100972.94;10147932;29;20152;-85
2023/03/16 20:56:53;;;;;;;3.47;1.85;;;;;;;5.89;61.72;100977.75;10135612;29;20056;-84
2023/03/16 21:01:59;;;;;;;0.68;0.52;;;;;;;5.86;61.97;100962.03;10113926;29;20537;-85
2023/03/16 21:07:05;;;;;;;0.50;0.50;;;;;;;5.82;62.25;100950.66;10136940;29;20052;-85
2023/03/16 21:12:21;;;;;;;1.00;0.75;;;;;;;5.81;62.47;100945.38;10143846;29;20049;-85
2023/03/16 21:17:29;;;;;;;0.45;0.45;;;;;;;5.69;62.87;100935.41;10154501;29;20085;-85
2023/03/16 21:22:33;;;;;;;1.38;0.88;;;;;;;5.63;63.36;100941.25;10138985;29;20429;-85
2023/03/16 21:27:36;;;;;;;1.33;0.77;;;;;;;5.56;63.66;100930.56;10141175;29;20473;-84
2023/03/16 21:32:38;;;;;;;0.88;0.55;;;;;;;5.48;64.00;100912.06;10137301;29;20056;-85
2023/03/16 21:37:39;;;;;;;0.95;0.55;;;;;;;5.42;64.46;100912.69;10152175;29;20128;-84
2023/03/16 21:42:41;;;;;;;2.97;1.52;;;;;;;5.27;64.66;100914.69;10145079;29;20061;-84
2023/03/16 21:47:44;;;;;;;2.13;0.65;;;;;;;5.19;65.47;100929.06;10144673;29;20056;-84
2023/03/16 21:52:47;;;;;;;1.15;0.43;;;;;;;5.14;65.96;100940.13;10134526;29;20080;-85
2023/03/16 21:57:49;;;;;;;3.08;1.15;;;;;;;5.05;66.24;100944.94;10132687;29;20064;-85
2023/03/16 22:02:53;;;;;;;1.58;0.82;;;;;;;5.03;66.71;100941.41;10119336;29;20532;-84
2023/03/16 22:07:56;;;;;;;1.27;0.80;;;;;;;5.01;67.05;100935.25;10152639;29;20048;-84
2023/03/16 22:12:58;;;;;;;1.45;0.90;;;;;;;5.00;67.48;100917.91;10134393;29;20139;-85
2023/03/16 22:18:07;;;;;;;1.20;1.00;;;;;;;5.00;67.80;100907.53;10140982;29;20615;-84
2023/03/16 22:23:26;;;;;;;4.18;1.10;;;;;;;4.95;68.05;100898.66;10120807;29;20131;-84
2023/03/16 22:28:28;;;;;;;1.98;1.05;;;;;;;4.97;68.53;100907.41;10161584;29;20147;-85
2023/03/16 22:33:36;;;;;;;0.55;0.55;;;;;;;4.93;68.77;100897.72;10126929;29;20178;-84
2023/03/16 22:38:39;;;;;;;2.65;1.00;;;;;;;4.86;69.28;100898.28;10146964;29;20131;-84
2023/03/16 22:43:43;;;;;;;1.33;0.88;;;;;;;4.84;69.63;100902.53;10142333;29;20437;-84
2023/03/16 22:48:45;;;;;;;2.05;1.00;;;;;;;4.86;69.92;100893.09;10125015;29;20601;-84
2023/03/16 22:53:49;;;;;;;1.33;0.80;;;;;;;4.84;70.29;100884.38;10157874;29;20147;-85
2023/03/16 22:58:59;;;;;;;2.10;1.10;;;;;;;4.85;70.82;100887.03;10133633;29;20576;-84
2023/03/16 23:04:01;;;;;;;1.50;1.23;;;;;;;4.85;70.79;100875.72;10156649;29;20190;-84
2023/03/16 23:09:03;;;;;;;1.02;0.70;;;;;;;4.85;71.16;100865.34;10154848;29;20076;-85
2023/03/16 23:14:13;;;;;;;2.67;1.38;;;;;;;4.88;71.28;100866.38;10142180;29;20053;-85
2023/03/16 23:19:23;;;;;;;2.50;1.02;;;;;;;4.85;71.48;100873.13;10140101;29;20172;-85
2023/03/16 23:24:25;;;;;;;3.35;1.48;;;;;;;4.83;71.75;100867.00;10118325;29;20053;-84
2023/03/16 23:29:27;;;;;;;2.45;0.77;;;;;;;4.82;71.98;100858.34;10137544;29;20062;-85
2023/03/16 23:34:29;;;;;;;2.30;1.30;;;;;;;4.83;72.18;100862.69;10161995;29;20498;-85
2023/03/16 23:39:31;;;;;;;1.38;0.80;;;;;;;4.79;72.34;100876.38;10171505;29;20529;-85
2023/03/16 23:44:33;;;;;;;1.80;1.17;;;;;;;4.78;72.61;100880.66;10157371;29;20390;-85
2023/03/16 23:49:37;;;;;;;1.15;0.98;;;;;;;4.75;72.74;100875.34;10145616;29;20501;-85
2023/03/16 23:54:39;;;;;;;10.13;1.33;;;;;;;4.72;73.20;100869.16;10132987;29;20120;-85
2023/03/16 23:59:41;;;;;;;2.10;1.05;;;;;;;4.68;73.25;100862.06;10128477;29;20052;-84
